Portada
METAR-TAF:

METAR-TAF

Aeroports :

Fairfield, Iowa, Estats Units d'Amèrica

Fairfield Municipal Airport

latitud: 41-03N, longitud: 091-59W, altitud: 244 m

Observació

L'informe es va fer fa 15 hores i 49 minuts, a les 15:15 UTC
Vent 4 kt del Nord amb ràfegues de 18 kt
Temperatura 0°C
Humitat 100%
Pressió 1012 hPa
Visibilitat: 2.0 km
Cel ennuvolat a una alçada de 400 ft
Cel cobert a una alçada de 700 ft
boirina

METAR: KFFL 201515Z AUTO 35004G18KT 1 1/4SM BR BKN004 OVC007 00/M00 A2987 RMK AO2 PWINO

Hora: 01:04 (07:04 UTC)


TAF: manca

Observacions i pronòstics meteorològics de més de 4000 aeroports (METAR i TAF).

Les estacions disponibles són els punts grocs i vermells al mapa.

Posi el ratolí al punt desitjat per veure el nom de l'estació.

Feu clic per veure les observacions i els pronòstics meteorològics.

Per canviar el mapa: feu clic els botons verds amb una creu de color negre per apropar; al botó verd amb un guió per allunyar la imatge; o en les fletxes verdes per a mapes adjacents.


METAR-TAF: